Terminal Aerodrome Forecast
Issued by NWS

Current Version | Previous Version | Text Only | Print | Product List | Glossary Off
Versions: 1 2 3 4 5 6 7 8 9 10 11 12 13 14 15 16 17 18 19 20 21 22

000
FTUS41 KRLX 201500 AAA
TAFCKB
TAF AMD
KCKB 201502Z 2015/2112 26009G17KT P6SM -SN OVC030
     FM201700 26012G22KT P6SM BKN035
     FM210500 27009G15KT 5SM -SN OVC025
     FM210800 27008KT P6SM OVC030=

USA.gov is the U.S. government's official web portal to all federal, state and local government web resources and services.